Cupertino, CA (95014)

9:27 AM PDT on August 30, 2015 (GMT -0700)
Monta Vista, Cupertino, CA | | Change Station
CLOSE
Current Station
Personal Weather Station
Location: Cupertino, CA
Elevation: 377 ft
Nearby Weather Stations

Elev 377 ft 37.32 °N, 122.07 °W | Updated 12 minutes ago

Mostly Cloudy
Mostly Cloudy
66.4 °F
Feels Like 66.4 °F
N
1.6
Wind Variable Wind from NNE
Gusts 2.7 mph

Today
High -- | Low -- °F
--% Chance of Precip.
Yesterday
High -- | Low -- °F
Precip. -- in
6:36 AM 7:40 PM
Full, 99% visible
Pressure 30.07 in
Visibility 10.0 miles
Clouds Clear
Dew Point 57 °F
Humidity 72%
Rainfall 0.00 in
Snow Depth Not available.
UV 2 out of 12
Pollen 6.40 out of 12
Air Quality Not available.
Flu Activity Not available.
METAR KNUQ 301556Z 33004KT 10SM CLR 20/14 A3006 RMK AO2 SLP183 T02000139
Pressure 30.07 in
Visibility 10.0 miles
Clouds Clear
Dew Point 57 °F
Humidity 72%
Rainfall 0.00 in
Snow Depth Not available.
UV 2 out of 12
Pollen 6.40 out of 12
Air Quality Not available.
Flu Activity Not available.
METAR KNUQ 301556Z 33004KT 10SM CLR 20/14 A3006 RMK AO2 SLP183 T02000139

10-Day Weather Forecast

×

Almanac

Astronomy

Aug. 30, 2015 Rise Set
Actual Time
Civil Twilight
Nautical Twilight
Astronomical Twilight
Moon
Length of Visible Light
Length of Day
Tomorrow will be .
, % of the Moon is Illuminated

Today's Extremes

State Highs State Lows

Community

WunderPhotos

Upload Photos

1,851,005 photos uploaded!

WunderBlogs® & News

Nearby

Air Quality

  Air Quality AQ Index Pollutant
Not available.

Snow Depth

Station Depth Elevation

Earthquake Activity

City Distance Mag. Time & Date
Minimum magnitude displayed is 2.5.

Coastal Water Temperatures

Place Temperature

Stations

Nearby Weather Stations

Station Location Temp. Windchill Dew Point Humidity Wind Precip. Elev Updated Type